首页
METAR-TAF:

METAR-TAF

机场 :

科爾達, 塞内加尔

纬度: 12-53N, 经度: 014-58W, 海拔: 10米

当前天气观测

该预报发布于1小时和1分钟前的19:00 UTC
静风
温度 41°C
湿度 25%
气压 1007 hPa
能见度10公里或以上
1500米以下无云,无积雨云

METAR: GOGK 071900Z 00000KT CAVOK 41/17 Q1007

时间: 20:01 (20:01 UTC)


TAF: 丢失

超过4000个机场的气象观测和天气预报(METAR&TAF报告)。

可查询的气象台以黄色和红色小点在地图上表示。

将鼠标移到小点上方,可查看气象台名称。

然后点击查看天气观测和预报。

如需切换地图:点击带黑十字的绿色按钮放大地图;点击带横线的绿色按钮缩小地图;或者点击绿色箭头查看邻近地区的地图。


METAR-TAF: